sensor_id;sensor_type;location;lat;lon;timestamp;P1;durP1;ratioP1;P2;durP2;ratioP2
12912;SDS011;6524;51.368;11.984;2023-07-09T00:02:32;8.13;;;6.30;;
12912;SDS011;6524;51.368;11.984;2023-07-09T00:07:33;8.63;;;6.30;;
12912;SDS011;6524;51.368;11.984;2023-07-09T00:12:37;9.02;;;6.30;;
12912;SDS011;6524;51.368;11.984;2023-07-09T00:17:45;8.80;;;6.32;;
12912;SDS011;6524;51.368;11.984;2023-07-09T00:22:52;7.72;;;6.80;;
12912;SDS011;6524;51.368;11.984;2023-07-09T00:27:58;11.02;;;6.53;;
12912;SDS011;6524;51.368;11.984;2023-07-09T00:32:59;7.55;;;6.28;;
12912;SDS011;6524;51.368;11.984;2023-07-09T00:38:03;7.25;;;6.47;;
12912;SDS011;6524;51.368;11.984;2023-07-09T00:43:21;8.05;;;6.32;;
12912;SDS011;6524;51.368;11.984;2023-07-09T00:48:39;8.02;;;6.13;;
12912;SDS011;6524;51.368;11.984;2023-07-09T00:53:39;10.85;;;6.60;;
12912;SDS011;6524;51.368;11.984;2023-07-09T00:58:45;9.88;;;6.50;;
12912;SDS011;6524;51.368;11.984;2023-07-09T01:03:49;7.60;;;6.30;;
12912;SDS011;6524;51.368;11.984;2023-07-09T04:02:43;8.38;;;7.57;;
12912;SDS011;6524;51.368;11.984;2023-07-09T04:07:44;9.05;;;7.55;;
12912;SDS011;6524;51.368;11.984;2023-07-09T04:12:45;8.60;;;7.38;;
12912;SDS011;6524;51.368;11.984;2023-07-09T04:17:45;8.57;;;7.78;;
12912;SDS011;6524;51.368;11.984;2023-07-09T04:22:46;8.97;;;7.37;;
12912;SDS011;6524;51.368;11.984;2023-07-09T05:14:18;9.68;;;8.77;;
12912;SDS011;6524;51.368;11.984;2023-07-09T05:19:19;9.50;;;8.15;;
12912;SDS011;6524;51.368;11.984;2023-07-09T05:24:19;9.65;;;8.68;;
12912;SDS011;6524;51.368;11.984;2023-07-09T05:29:20;11.77;;;8.80;;
12912;SDS011;6524;51.368;11.984;2023-07-09T05:34:20;9.05;;;8.13;;
12912;SDS011;6524;51.368;11.984;2023-07-09T05:39:21;10.10;;;9.15;;
12912;SDS011;6524;51.368;11.984;2023-07-09T05:44:22;9.32;;;8.52;;
12912;SDS011;6524;51.368;11.984;2023-07-09T05:49:22;10.15;;;9.18;;
12912;SDS011;6524;51.368;11.984;2023-07-09T05:54:23;9.60;;;8.23;;
12912;SDS011;6524;51.368;11.984;2023-07-09T05:59:23;9.73;;;8.82;;
12912;SDS011;6524;51.368;11.984;2023-07-09T06:04:24;11.27;;;8.68;;
12912;SDS011;6524;51.368;11.984;2023-07-09T06:09:26;10.05;;;9.07;;
12912;SDS011;6524;51.368;11.984;2023-07-09T06:14:26;10.47;;;9.33;;
12912;SDS011;6524;51.368;11.984;2023-07-09T06:19:27;9.43;;;8.45;;
12912;SDS011;6524;51.368;11.984;2023-07-09T06:24:28;12.05;;;8.75;;
12912;SDS011;6524;51.368;11.984;2023-07-09T06:29:28;9.63;;;8.63;;
12912;SDS011;6524;51.368;11.984;2023-07-09T06:34:28;11.23;;;8.57;;
12912;SDS011;6524;51.368;11.984;2023-07-09T06:39:29;11.45;;;8.30;;
12912;SDS011;6524;51.368;11.984;2023-07-09T06:44:29;9.70;;;8.60;;
12912;SDS011;6524;51.368;11.984;2023-07-09T06:49:29;12.23;;;8.82;;
12912;SDS011;6524;51.368;11.984;2023-07-09T06:54:30;10.52;;;9.23;;
12912;SDS011;6524;51.368;11.984;2023-07-09T06:59:30;9.60;;;8.70;;
12912;SDS011;6524;51.368;11.984;2023-07-09T07:04:30;11.47;;;9.03;;
12912;SDS011;6524;51.368;11.984;2023-07-09T07:09:31;10.25;;;9.35;;
12912;SDS011;6524;51.368;11.984;2023-07-09T07:14:31;11.13;;;8.80;;
12912;SDS011;6524;51.368;11.984;2023-07-09T07:19:32;10.65;;;8.13;;
12912;SDS011;6524;51.368;11.984;2023-07-09T07:24:32;8.70;;;7.80;;
12912;SDS011;6524;51.368;11.984;2023-07-09T07:29:32;10.90;;;8.50;;
12912;SDS011;6524;51.368;11.984;2023-07-09T07:34:33;9.43;;;8.50;;
12912;SDS011;6524;51.368;11.984;2023-07-09T07:39:33;10.77;;;8.90;;
12912;SDS011;6524;51.368;11.984;2023-07-09T07:44:33;9.75;;;8.40;;
12912;SDS011;6524;51.368;11.984;2023-07-09T07:49:34;10.15;;;8.45;;
12912;SDS011;6524;51.368;11.984;2023-07-09T07:54:34;9.35;;;8.52;;
12912;SDS011;6524;51.368;11.984;2023-07-09T07:59:35;10.13;;;8.00;;
12912;SDS011;6524;51.368;11.984;2023-07-09T08:04:36;10.18;;;8.07;;
12912;SDS011;6524;51.368;11.984;2023-07-09T08:09:37;8.15;;;7.45;;
12912;SDS011;6524;51.368;11.984;2023-07-09T08:14:39;9.85;;;7.95;;
12912;SDS011;6524;51.368;11.984;2023-07-09T08:19:45;10.13;;;9.20;;
12912;SDS011;6524;51.368;11.984;2023-07-09T08:24:49;8.63;;;7.82;;
12912;SDS011;6524;51.368;11.984;2023-07-09T08:29:51;8.13;;;7.40;;
12912;SDS011;6524;51.368;11.984;2023-07-09T08:34:51;8.50;;;7.70;;
12912;SDS011;6524;51.368;11.984;2023-07-09T08:39:52;14.90;;;7.68;;
12912;SDS011;6524;51.368;11.984;2023-07-09T08:45:11;8.17;;;7.40;;
12912;SDS011;6524;51.368;11.984;2023-07-09T08:50:22;7.95;;;7.25;;
12912;SDS011;6524;51.368;11.984;2023-07-09T08:55:28;7.50;;;6.80;;
12912;SDS011;6524;51.368;11.984;2023-07-09T09:05:54;7.55;;;6.85;;
12912;SDS011;6524;51.368;11.984;2023-07-09T09:16:31;7.10;;;6.50;;
12912;SDS011;6524;51.368;11.984;2023-07-09T09:21:36;7.50;;;6.80;;
12912;SDS011;6524;51.368;11.984;2023-07-09T09:26:37;7.10;;;6.40;;
12912;SDS011;6524;51.368;11.984;2023-07-09T09:31:42;7.10;;;6.40;;
12912;SDS011;6524;51.368;11.984;2023-07-09T09:36:45;6.95;;;6.20;;
12912;SDS011;6524;51.368;11.984;2023-07-09T09:41:46;6.35;;;5.80;;
12912;SDS011;6524;51.368;11.984;2023-07-09T09:46:50;7.05;;;6.32;;
12912;SDS011;6524;51.368;11.984;2023-07-09T09:51:50;6.90;;;6.30;;
12912;SDS011;6524;51.368;11.984;2023-07-09T09:56:52;6.97;;;6.38;;
12912;SDS011;6524;51.368;11.984;2023-07-09T10:01:57;7.15;;;6.53;;
12912;SDS011;6524;51.368;11.984;2023-07-09T10:07:01;6.28;;;5.70;;
12912;SDS011;6524;51.368;11.984;2023-07-09T10:12:16;6.00;;;5.43;;
12912;SDS011;6524;51.368;11.984;2023-07-09T10:22:40;5.97;;;5.47;;
12912;SDS011;6524;51.368;11.984;2023-07-09T10:33:13;6.28;;;5.68;;
12912;SDS011;6524;51.368;11.984;2023-07-09T10:49:12;6.38;;;5.88;;
12912;SDS011;6524;51.368;11.984;2023-07-09T10:54:24;6.22;;;5.70;;
12912;SDS011;6524;51.368;11.984;2023-07-09T10:59:33;6.53;;;5.85;;
12912;SDS011;6524;51.368;11.984;2023-07-09T11:04:44;6.30;;;5.70;;
12912;SDS011;6524;51.368;11.984;2023-07-09T11:09:49;6.30;;;5.65;;
12912;SDS011;6524;51.368;11.984;2023-07-09T11:15:12;6.45;;;5.95;;
12912;SDS011;6524;51.368;11.984;2023-07-09T11:20:25;6.53;;;5.90;;
12912;SDS011;6524;51.368;11.984;2023-07-09T11:25:41;5.90;;;5.18;;
12912;SDS011;6524;51.368;11.984;2023-07-09T11:30:46;6.38;;;5.78;;
12912;SDS011;6524;51.368;11.984;2023-07-09T11:36:13;6.38;;;5.78;;
12912;SDS011;6524;51.368;11.984;2023-07-09T11:41:25;5.97;;;5.57;;
12912;SDS011;6524;51.368;11.984;2023-07-09T11:46:27;6.47;;;5.90;;
12912;SDS011;6524;51.368;11.984;2023-07-09T11:51:33;6.45;;;5.88;;
12912;SDS011;6524;51.368;11.984;2023-07-09T11:56:42;6.63;;;5.90;;
12912;SDS011;6524;51.368;11.984;2023-07-09T12:01:54;6.55;;;5.95;;
12912;SDS011;6524;51.368;11.984;2023-07-09T12:06:57;6.22;;;5.63;;
12912;SDS011;6524;51.368;11.984;2023-07-09T12:11:59;7.78;;;6.95;;
12912;SDS011;6524;51.368;11.984;2023-07-09T12:17:00;6.10;;;5.60;;
12912;SDS011;6524;51.368;11.984;2023-07-09T12:22:00;6.60;;;6.00;;
12912;SDS011;6524;51.368;11.984;2023-07-09T12:27:02;6.40;;;5.80;;
12912;SDS011;6524;51.368;11.984;2023-07-09T12:32:12;6.50;;;5.82;;
12912;SDS011;6524;51.368;11.984;2023-07-09T12:37:15;6.38;;;5.78;;
12912;SDS011;6524;51.368;11.984;2023-07-09T12:42:17;6.57;;;5.97;;
12912;SDS011;6524;51.368;11.984;2023-07-09T12:47:19;6.22;;;5.72;;
12912;SDS011;6524;51.368;11.984;2023-07-09T12:52:22;6.93;;;6.32;;
12912;SDS011;6524;51.368;11.984;2023-07-09T12:57:25;6.93;;;6.30;;
12912;SDS011;6524;51.368;11.984;2023-07-09T13:02:27;7.05;;;6.43;;
12912;SDS011;6524;51.368;11.984;2023-07-09T13:07:32;6.30;;;5.70;;
12912;SDS011;6524;51.368;11.984;2023-07-09T13:12:38;8.05;;;7.25;;
12912;SDS011;6524;51.368;11.984;2023-07-09T13:17:41;6.60;;;5.70;;
12912;SDS011;6524;51.368;11.984;2023-07-09T13:22:43;6.47;;;5.82;;
12912;SDS011;6524;51.368;11.984;2023-07-09T13:27:44;8.13;;;7.38;;
12912;SDS011;6524;51.368;11.984;2023-07-09T13:32:46;7.30;;;6.55;;
12912;SDS011;6524;51.368;11.984;2023-07-09T13:37:48;7.18;;;6.47;;
12912;SDS011;6524;51.368;11.984;2023-07-09T13:42:48;6.73;;;5.67;;
12912;SDS011;6524;51.368;11.984;2023-07-09T13:47:49;6.43;;;5.93;;
12912;SDS011;6524;51.368;11.984;2023-07-09T13:52:51;6.85;;;6.22;;
12912;SDS011;6524;51.368;11.984;2023-07-09T13:57:52;6.87;;;6.17;;
12912;SDS011;6524;51.368;11.984;2023-07-09T14:08:34;6.75;;;6.15;;
12912;SDS011;6524;51.368;11.984;2023-07-09T14:13:34;6.37;;;5.77;;
12912;SDS011;6524;51.368;11.984;2023-07-09T14:18:35;6.65;;;5.82;;
12912;SDS011;6524;51.368;11.984;2023-07-09T14:23:35;6.55;;;5.95;;
12912;SDS011;6524;51.368;11.984;2023-07-09T14:28:35;7.28;;;6.15;;
12912;SDS011;6524;51.368;11.984;2023-07-09T14:33:38;7.68;;;6.97;;
12912;SDS011;6524;51.368;11.984;2023-07-09T14:38:39;6.97;;;6.10;;
12912;SDS011;6524;51.368;11.984;2023-07-09T14:43:39;6.75;;;6.07;;
12912;SDS011;6524;51.368;11.984;2023-07-09T14:48:39;6.70;;;6.00;;
12912;SDS011;6524;51.368;11.984;2023-07-09T14:53:40;6.37;;;5.70;;
12912;SDS011;6524;51.368;11.984;2023-07-09T14:58:40;6.90;;;6.20;;
12912;SDS011;6524;51.368;11.984;2023-07-09T15:03:41;6.97;;;6.25;;
12912;SDS011;6524;51.368;11.984;2023-07-09T15:08:41;6.97;;;6.28;;
12912;SDS011;6524;51.368;11.984;2023-07-09T15:13:41;7.20;;;5.83;;
12912;SDS011;6524;51.368;11.984;2023-07-09T15:18:42;6.50;;;5.90;;
12912;SDS011;6524;51.368;11.984;2023-07-09T15:23:42;7.00;;;6.15;;
12912;SDS011;6524;51.368;11.984;2023-07-09T15:28:46;6.75;;;6.05;;
12912;SDS011;6524;51.368;11.984;2023-07-09T15:33:50;7.82;;;6.40;;
12912;SDS011;6524;51.368;11.984;2023-07-09T15:38:50;6.70;;;6.10;;
12912;SDS011;6524;51.368;11.984;2023-07-09T15:43:50;8.40;;;6.27;;
12912;SDS011;6524;51.368;11.984;2023-07-09T15:48:51;7.63;;;6.77;;
12912;SDS011;6524;51.368;11.984;2023-07-09T15:53:56;7.03;;;6.43;;
12912;SDS011;6524;51.368;11.984;2023-07-09T15:58:58;6.90;;;6.22;;
12912;SDS011;6524;51.368;11.984;2023-07-09T16:04:01;7.47;;;6.78;;
12912;SDS011;6524;51.368;11.984;2023-07-09T16:09:08;8.10;;;6.20;;
12912;SDS011;6524;51.368;11.984;2023-07-09T16:14:16;6.57;;;5.95;;
12912;SDS011;6524;51.368;11.984;2023-07-09T16:19:21;6.47;;;5.80;;
12912;SDS011;6524;51.368;11.984;2023-07-09T16:24:30;9.70;;;7.60;;
12912;SDS011;6524;51.368;11.984;2023-07-09T16:29:33;7.80;;;7.10;;
12912;SDS011;6524;51.368;11.984;2023-07-09T16:34:34;8.15;;;7.45;;
12912;SDS011;6524;51.368;11.984;2023-07-09T16:39:39;7.95;;;7.10;;
12912;SDS011;6524;51.368;11.984;2023-07-09T16:44:41;7.50;;;6.80;;
12912;SDS011;6524;51.368;11.984;2023-07-09T16:49:42;7.25;;;6.65;;
12912;SDS011;6524;51.368;11.984;2023-07-09T16:54:43;8.55;;;6.70;;
12912;SDS011;6524;51.368;11.984;2023-07-09T16:59:43;6.93;;;6.25;;
12912;SDS011;6524;51.368;11.984;2023-07-09T17:04:44;7.00;;;6.25;;
12912;SDS011;6524;51.368;11.984;2023-07-09T17:09:44;7.30;;;6.60;;
12912;SDS011;6524;51.368;11.984;2023-07-09T17:14:45;6.70;;;6.10;;
12912;SDS011;6524;51.368;11.984;2023-07-09T17:19:46;6.55;;;5.95;;
12912;SDS011;6524;51.368;11.984;2023-07-09T17:24:47;6.47;;;5.88;;
12912;SDS011;6524;51.368;11.984;2023-07-09T17:29:49;6.72;;;6.13;;
12912;SDS011;6524;51.368;11.984;2023-07-09T17:34:49;7.40;;;6.47;;
12912;SDS011;6524;51.368;11.984;2023-07-09T17:39:49;6.60;;;6.00;;
12912;SDS011;6524;51.368;11.984;2023-07-09T17:44:51;7.05;;;6.30;;
12912;SDS011;6524;51.368;11.984;2023-07-09T17:49:52;8.43;;;7.07;;
12912;SDS011;6524;51.368;11.984;2023-07-09T17:54:52;7.32;;;6.20;;
12912;SDS011;6524;51.368;11.984;2023-07-09T17:59:53;7.87;;;7.17;;
12912;SDS011;6524;51.368;11.984;2023-07-09T18:04:53;7.57;;;6.70;;
12912;SDS011;6524;51.368;11.984;2023-07-09T18:09:55;7.38;;;6.07;;
12912;SDS011;6524;51.368;11.984;2023-07-09T18:14:57;8.77;;;7.28;;
12912;SDS011;6524;51.368;11.984;2023-07-09T18:19:58;7.32;;;6.63;;
12912;SDS011;6524;51.368;11.984;2023-07-09T18:24:59;7.57;;;6.35;;
12912;SDS011;6524;51.368;11.984;2023-07-09T18:29:59;7.50;;;6.80;;
12912;SDS011;6524;51.368;11.984;2023-07-09T18:35:01;6.68;;;6.15;;
12912;SDS011;6524;51.368;11.984;2023-07-09T18:40:26;7.35;;;6.43;;
12912;SDS011;6524;51.368;11.984;2023-07-09T18:45:31;9.05;;;7.50;;
12912;SDS011;6524;51.368;11.984;2023-07-09T18:50:33;7.53;;;6.72;;
12912;SDS011;6524;51.368;11.984;2023-07-09T18:55:34;7.40;;;6.70;;
12912;SDS011;6524;51.368;11.984;2023-07-09T19:00:34;8.88;;;8.07;;
12912;SDS011;6524;51.368;11.984;2023-07-09T19:05:35;8.38;;;7.57;;
12912;SDS011;6524;51.368;11.984;2023-07-09T19:10:35;9.38;;;8.50;;
12912;SDS011;6524;51.368;11.984;2023-07-09T19:15:36;7.38;;;6.68;;
12912;SDS011;6524;51.368;11.984;2023-07-09T19:20:38;8.30;;;7.50;;
12912;SDS011;6524;51.368;11.984;2023-07-09T19:25:39;7.40;;;6.47;;
12912;SDS011;6524;51.368;11.984;2023-07-09T19:30:40;7.43;;;6.75;;
12912;SDS011;6524;51.368;11.984;2023-07-09T19:35:42;8.60;;;7.72;;
12912;SDS011;6524;51.368;11.984;2023-07-09T19:40:42;8.30;;;7.50;;
12912;SDS011;6524;51.368;11.984;2023-07-09T19:45:44;8.40;;;7.32;;
12912;SDS011;6524;51.368;11.984;2023-07-09T19:50:47;8.75;;;6.70;;
12912;SDS011;6524;51.368;11.984;2023-07-09T19:55:50;9.40;;;6.95;;
12912;SDS011;6524;51.368;11.984;2023-07-09T20:00:52;7.25;;;6.53;;
12912;SDS011;6524;51.368;11.984;2023-07-09T20:05:54;8.63;;;7.15;;
12912;SDS011;6524;51.368;11.984;2023-07-09T20:10:56;10.68;;;6.88;;
12912;SDS011;6524;51.368;11.984;2023-07-09T20:16:00;9.20;;;7.05;;
12912;SDS011;6524;51.368;11.984;2023-07-09T20:21:01;9.00;;;6.65;;
12912;SDS011;6524;51.368;11.984;2023-07-09T20:26:15;10.52;;;7.85;;
12912;SDS011;6524;51.368;11.984;2023-07-09T20:36:18;7.57;;;6.85;;
12912;SDS011;6524;51.368;11.984;2023-07-09T20:41:19;8.27;;;7.30;;
12912;SDS011;6524;51.368;11.984;2023-07-09T20:46:19;9.25;;;7.78;;
12912;SDS011;6524;51.368;11.984;2023-07-09T20:51:20;8.87;;;7.30;;
12912;SDS011;6524;51.368;11.984;2023-07-09T20:56:20;7.40;;;6.70;;
12912;SDS011;6524;51.368;11.984;2023-07-09T21:01:20;8.95;;;7.65;;
12912;SDS011;6524;51.368;11.984;2023-07-09T21:06:21;8.47;;;7.07;;
12912;SDS011;6524;51.368;11.984;2023-07-09T21:11:21;8.57;;;7.53;;
12912;SDS011;6524;51.368;11.984;2023-07-09T21:16:22;7.85;;;6.88;;
12912;SDS011;6524;51.368;11.984;2023-07-09T21:21:22;7.68;;;6.72;;
12912;SDS011;6524;51.368;11.984;2023-07-09T21:26:22;7.93;;;6.87;;
12912;SDS011;6524;51.368;11.984;2023-07-09T21:31:22;7.70;;;6.83;;
12912;SDS011;6524;51.368;11.984;2023-07-09T21:36:23;9.63;;;7.75;;
12912;SDS011;6524;51.368;11.984;2023-07-09T21:41:23;8.60;;;7.20;;
12912;SDS011;6524;51.368;11.984;2023-07-09T21:46:25;8.87;;;7.10;;
12912;SDS011;6524;51.368;11.984;2023-07-09T21:51:27;7.80;;;6.88;;
12912;SDS011;6524;51.368;11.984;2023-07-09T21:56:28;8.90;;;7.50;;
12912;SDS011;6524;51.368;11.984;2023-07-09T22:01:28;7.97;;;6.77;;
12912;SDS011;6524;51.368;11.984;2023-07-09T22:06:29;8.10;;;7.30;;
12912;SDS011;6524;51.368;11.984;2023-07-09T22:11:29;8.90;;;7.45;;
12912;SDS011;6524;51.368;11.984;2023-07-09T22:16:30;8.95;;;7.35;;
12912;SDS011;6524;51.368;11.984;2023-07-09T22:21:30;7.38;;;6.68;;
12912;SDS011;6524;51.368;11.984;2023-07-09T22:26:31;7.75;;;7.03;;
12912;SDS011;6524;51.368;11.984;2023-07-09T22:31:32;7.63;;;6.82;;
12912;SDS011;6524;51.368;11.984;2023-07-09T22:36:33;7.55;;;6.75;;
12912;SDS011;6524;51.368;11.984;2023-07-09T22:41:33;7.78;;;7.03;;
12912;SDS011;6524;51.368;11.984;2023-07-09T22:46:33;7.55;;;6.70;;
12912;SDS011;6524;51.368;11.984;2023-07-09T22:51:34;7.60;;;6.90;;
12912;SDS011;6524;51.368;11.984;2023-07-09T22:56:35;7.20;;;6.50;;
12912;SDS011;6524;51.368;11.984;2023-07-09T23:01:36;7.80;;;7.00;;
12912;SDS011;6524;51.368;11.984;2023-07-09T23:06:37;8.15;;;7.30;;
12912;SDS011;6524;51.368;11.984;2023-07-09T23:11:39;10.75;;;7.10;;
12912;SDS011;6524;51.368;11.984;2023-07-09T23:16:41;10.60;;;7.35;;
12912;SDS011;6524;51.368;11.984;2023-07-09T23:21:45;13.43;;;8.40;;
12912;SDS011;6524;51.368;11.984;2023-07-09T23:26:47;15.25;;;8.95;;
12912;SDS011;6524;51.368;11.984;2023-07-09T23:31:52;13.95;;;8.77;;
12912;SDS011;6524;51.368;11.984;2023-07-09T23:36:53;10.48;;;8.40;;
12912;SDS011;6524;51.368;11.984;2023-07-09T23:41:53;9.90;;;8.00;;
12912;SDS011;6524;51.368;11.984;2023-07-09T23:46:56;10.73;;;8.93;;
12912;SDS011;6524;51.368;11.984;2023-07-09T23:51:57;10.20;;;8.30;;
12912;SDS011;6524;51.368;11.984;2023-07-09T23:56:57;10.18;;;8.35;;
